sensor_id;sensor_type;location;lat;lon;timestamp;pressure;altitude;pressure_sealevel;temperature;humidity
73651;BME280;61944;52.538;6.108;2023-11-22T05:48:17;102880.31;;;3.39;100.00
73651;BME280;61944;52.538;6.108;2023-11-22T05:50:44;102893.88;;;3.41;100.00
73651;BME280;61944;52.538;6.108;2023-11-22T05:53:10;102903.00;;;3.41;100.00
73651;BME280;61944;52.538;6.108;2023-11-22T05:55:36;102901.34;;;3.45;100.00
73651;BME280;61944;52.538;6.108;2023-11-22T05:58:03;102893.06;;;3.40;100.00
73651;BME280;61944;52.538;6.108;2023-11-22T06:00:28;102901.38;;;3.40;100.00
73651;BME280;61944;52.538;6.108;2023-11-22T06:02:53;102904.69;;;3.42;100.00
73651;BME280;61944;52.538;6.108;2023-11-22T06:05:20;102907.19;;;3.44;100.00
73651;BME280;61944;52.538;6.108;2023-11-22T06:07:45;102908.81;;;3.45;100.00
73651;BME280;61944;52.538;6.108;2023-11-22T06:10:11;102901.34;;;3.45;100.00
73651;BME280;61944;52.538;6.108;2023-11-22T06:12:39;102899.16;;;3.42;100.00
73651;BME280;61944;52.538;6.108;2023-11-22T06:15:04;102891.66;;;3.43;100.00
73651;BME280;61944;52.538;6.108;2023-11-22T06:17:30;102903.88;;;3.42;100.00
73651;BME280;61944;52.538;6.108;2023-11-22T06:19:55;102904.69;;;3.42;100.00
73651;BME280;61944;52.538;6.108;2023-11-22T06:22:22;102905.78;;;3.46;100.00
73651;BME280;61944;52.538;6.108;2023-11-22T06:24:48;102905.53;;;3.48;100.00
73651;BME280;61944;52.538;6.108;2023-11-22T06:27:14;102909.09;;;3.49;100.00
73651;BME280;61944;52.538;6.108;2023-11-22T06:29:40;102911.31;;;3.46;100.00
73651;BME280;61944;52.538;6.108;2023-11-22T06:32:07;102925.44;;;3.50;100.00
73651;BME280;61944;52.538;6.108;2023-11-22T06:34:33;102935.09;;;3.58;100.00
73651;BME280;61944;52.538;6.108;2023-11-22T06:36:58;102935.94;;;3.58;100.00
73651;BME280;61944;52.538;6.108;2023-11-22T06:39:24;102935.94;;;3.63;100.00
73651;BME280;61944;52.538;6.108;2023-11-22T06:41:50;102945.31;;;3.78;100.00
73651;BME280;61944;52.538;6.108;2023-11-22T06:44:16;102947.84;;;3.69;100.00
73651;BME280;61944;52.538;6.108;2023-11-22T06:46:41;102946.16;;;3.68;100.00
73651;BME280;61944;52.538;6.108;2023-11-22T06:49:06;102930.66;;;3.62;100.00
73651;BME280;61944;52.538;6.108;2023-11-22T06:51:32;102917.41;;;3.59;100.00
73651;BME280;61944;52.538;6.108;2023-11-22T06:53:57;102917.38;;;3.54;100.00
73651;BME280;61944;52.538;6.108;2023-11-22T06:56:22;102906.88;;;3.51;100.00
73651;BME280;61944;52.538;6.108;2023-11-22T06:58:48;102916.28;;;3.60;100.00
73651;BME280;61944;52.538;6.108;2023-11-22T07:01:13;102912.41;;;3.61;100.00
73651;BME280;61944;52.538;6.108;2023-11-22T07:03:39;102918.50;;;3.58;100.00
73651;BME280;61944;52.538;6.108;2023-11-22T07:06:05;102914.59;;;3.64;100.00
73651;BME280;61944;52.538;6.108;2023-11-22T07:08:30;102908.50;;;3.62;100.00
73651;BME280;61944;52.538;6.108;2023-11-22T07:10:56;102917.34;;;3.74;100.00
73651;BME280;61944;52.538;6.108;2023-11-22T07:13:24;102913.50;;;3.60;100.00
73651;BME280;61944;52.538;6.108;2023-11-22T07:15:50;102914.91;;;3.47;100.00
73651;BME280;61944;52.538;6.108;2023-11-22T07:18:16;102910.09;;;3.83;100.00
73651;BME280;61944;52.538;6.108;2023-11-22T07:20:41;102922.63;;;3.76;100.00
73651;BME280;61944;52.538;6.108;2023-11-22T07:23:07;102916.25;;;3.70;100.00
73651;BME280;61944;52.538;6.108;2023-11-22T07:25:38;102913.44;;;3.75;100.00
73651;BME280;61944;52.538;6.108;2023-11-22T07:28:04;102917.34;;;3.74;100.00
73651;BME280;61944;52.538;6.108;2023-11-22T07:30:29;102919.31;;;3.58;100.00
73651;BME280;61944;52.538;6.108;2023-11-22T07:32:56;102906.31;;;3.54;100.00
73651;BME280;61944;52.538;6.108;2023-11-22T07:35:21;102909.34;;;3.67;100.00
73651;BME280;61944;52.538;6.108;2023-11-22T07:37:47;102914.63;;;3.59;100.00
73651;BME280;61944;52.538;6.108;2023-11-22T07:40:14;102908.28;;;3.48;100.00
73651;BME280;61944;52.538;6.108;2023-11-22T07:42:40;102912.97;;;3.47;100.00
73651;BME280;61944;52.538;6.108;2023-11-22T07:45:06;102898.03;;;3.38;100.00
73651;BME280;61944;52.538;6.108;2023-11-22T07:47:31;102907.47;;;3.37;100.00
73651;BME280;61944;52.538;6.108;2023-11-22T07:49:57;102904.13;;;3.45;100.00
73651;BME280;61944;52.538;6.108;2023-11-22T07:52:26;102901.38;;;3.40;100.00
73651;BME280;61944;52.538;6.108;2023-11-22T07:54:57;102917.69;;;3.52;100.00
73651;BME280;61944;52.538;6.108;2023-11-22T07:57:23;102912.44;;;3.51;100.00
73651;BME280;61944;52.538;6.108;2023-11-22T07:59:49;102921.28;;;3.42;100.00
73651;BME280;61944;52.538;6.108;2023-11-22T08:02:16;102933.00;;;4.15;100.00
73651;BME280;61944;52.538;6.108;2023-11-22T08:04:44;102947.22;;;3.87;100.00
73651;BME280;61944;52.538;6.108;2023-11-22T08:07:10;102946.09;;;3.99;100.00
73651;BME280;61944;52.538;6.108;2023-11-22T08:09:38;102945.50;;;4.02;100.00
73651;BME280;61944;52.538;6.108;2023-11-22T08:12:04;102963.28;;;4.01;100.00
73651;BME280;61944;52.538;6.108;2023-11-22T08:14:29;102965.78;;;3.92;100.00
73651;BME280;61944;52.538;6.108;2023-11-22T08:16:55;102967.47;;;3.88;100.00
73651;BME280;61944;52.538;6.108;2023-11-22T08:19:21;102962.75;;;3.89;100.00
73651;BME280;61944;52.538;6.108;2023-11-22T08:21:49;102971.59;;;3.91;100.00
73651;BME280;61944;52.538;6.108;2023-11-22T08:24:14;102967.72;;;3.97;100.00
73651;BME280;61944;52.538;6.108;2023-11-22T08:26:39;102970.22;;;3.93;100.00
73651;BME280;61944;52.538;6.108;2023-11-22T08:29:05;102973.53;;;3.95;100.00
73651;BME280;61944;52.538;6.108;2023-11-22T08:31:33;102972.47;;;3.71;100.00
73651;BME280;61944;52.538;6.108;2023-11-22T08:33:59;102971.09;;;3.73;100.00
73651;BME280;61944;52.538;6.108;2023-11-22T08:36:25;102977.16;;;3.80;100.00
73651;BME280;61944;52.538;6.108;2023-11-22T08:38:50;102985.72;;;3.89;100.00
73651;BME280;61944;52.538;6.108;2023-11-22T08:41:15;102981.81;;;4.00;100.00
73651;BME280;61944;52.538;6.108;2023-11-22T08:43:42;102984.00;;;4.08;100.00
73651;BME280;61944;52.538;6.108;2023-11-22T08:46:07;102985.19;;;3.92;100.00
73651;BME280;61944;52.538;6.108;2023-11-22T08:48:33;102989.34;;;3.84;100.00
73651;BME280;61944;52.538;6.108;2023-11-22T08:51:00;102975.00;;;3.67;100.00
73651;BME280;61944;52.538;6.108;2023-11-22T08:53:26;102977.44;;;3.84;100.00
73651;BME280;61944;52.538;6.108;2023-11-22T08:55:51;102978.28;;;3.84;100.00
73651;BME280;61944;52.538;6.108;2023-11-22T08:58:19;102972.72;;;3.79;100.00
73651;BME280;61944;52.538;6.108;2023-11-22T09:00:45;102965.81;;;3.82;100.00
73651;BME280;61944;52.538;6.108;2023-11-22T09:03:13;102956.66;;;3.81;100.00
73651;BME280;61944;52.538;6.108;2023-11-22T09:05:39;102970.50;;;3.86;100.00
73651;BME280;61944;52.538;6.108;2023-11-22T09:08:05;102968.28;;;3.89;100.00
73651;BME280;61944;52.538;6.108;2023-11-22T09:10:30;102975.75;;;3.93;100.00
73651;BME280;61944;52.538;6.108;2023-11-22T09:12:55;102974.06;;;4.02;100.00
73651;BME280;61944;52.538;6.108;2023-11-22T09:15:24;102977.91;;;4.06;100.00
73651;BME280;61944;52.538;6.108;2023-11-22T09:17:52;102971.31;;;3.97;100.00
73651;BME280;61944;52.538;6.108;2023-11-22T09:20:19;102968.25;;;3.94;100.00
73651;BME280;61944;52.538;6.108;2023-11-22T09:22:50;102963.84;;;3.87;100.00
73651;BME280;61944;52.538;6.108;2023-11-22T09:25:17;102958.53;;;3.96;100.00
73651;BME280;61944;52.538;6.108;2023-11-22T09:27:44;102959.97;;;3.89;100.00
73651;BME280;61944;52.538;6.108;2023-11-22T09:30:14;102953.88;;;3.86;100.00
73651;BME280;61944;52.538;6.108;2023-11-22T09:32:45;102956.38;;;3.88;100.00
73651;BME280;61944;52.538;6.108;2023-11-22T09:35:13;102957.38;;;4.18;100.00
73651;BME280;61944;52.538;6.108;2023-11-22T09:37:40;102967.63;;;4.22;100.00
73651;BME280;61944;52.538;6.108;2023-11-22T09:40:08;102972.03;;;4.23;100.00
73651;BME280;61944;52.538;6.108;2023-11-22T09:42:34;102967.66;;;4.12;100.00
73651;BME280;61944;52.538;6.108;2023-11-22T09:45:00;102965.50;;;3.99;100.00
73651;BME280;61944;52.538;6.108;2023-11-22T09:47:26;102967.69;;;4.02;100.00
73651;BME280;61944;52.538;6.108;2023-11-22T09:49:54;102973.78;;;4.09;100.00
73651;BME280;61944;52.538;6.108;2023-11-22T09:52:22;102975.97;;;4.12;100.00
73651;BME280;61944;52.538;6.108;2023-11-22T09:54:51;102962.06;;;4.17;100.00
73651;BME280;61944;52.538;6.108;2023-11-22T09:57:18;102975.13;;;4.17;100.00
73651;BME280;61944;52.538;6.108;2023-11-22T09:59:45;102983.44;;;4.17;100.00
73651;BME280;61944;52.538;6.108;2023-11-22T10:02:11;102977.81;;;4.32;100.00
73651;BME280;61944;52.538;6.108;2023-11-22T10:04:37;102967.53;;;4.38;100.00
73651;BME280;61944;52.538;6.108;2023-11-22T10:07:03;102955.94;;;4.25;100.00
73651;BME280;61944;52.538;6.108;2023-11-22T10:09:29;102954.84;;;4.21;100.00
73651;BME280;61944;52.538;6.108;2023-11-22T10:11:58;102956.25;;;4.19;100.00
73651;BME280;61944;52.538;6.108;2023-11-22T10:14:23;102951.53;;;4.19;100.00
73651;BME280;61944;52.538;6.108;2023-11-22T10:17:00;102957.03;;;4.30;100.00
73651;BME280;61944;52.538;6.108;2023-11-22T10:19:27;102955.91;;;4.36;100.00
73651;BME280;61944;52.538;6.108;2023-11-22T10:22:07;102954.25;;;4.35;100.00
73651;BME280;61944;52.538;6.108;2023-11-22T10:24:33;102939.16;;;4.56;100.00
73651;BME280;61944;52.538;6.108;2023-11-22T10:27:02;102938.03;;;4.62;100.00
73651;BME280;61944;52.538;6.108;2023-11-22T10:29:28;102934.44;;;4.57;100.00
73651;BME280;61944;52.538;6.108;2023-11-22T10:31:54;102942.44;;;4.68;100.00
73651;BME280;61944;52.538;6.108;2023-11-22T10:34:24;102948.53;;;4.65;100.00
73651;BME280;61944;52.538;6.108;2023-11-22T10:36:49;102934.97;;;4.64;100.00
73651;BME280;61944;52.538;6.108;2023-11-22T10:39:19;102944.13;;;4.64;100.00
73651;BME280;61944;52.538;6.108;2023-11-22T10:41:45;102933.63;;;4.56;100.00
73651;BME280;61944;52.538;6.108;2023-11-22T10:44:11;102935.41;;;4.76;100.00
73651;BME280;61944;52.538;6.108;2023-11-22T10:46:39;102927.34;;;4.80;100.00
73651;BME280;61944;52.538;6.108;2023-11-22T10:49:05;102921.81;;;4.80;100.00
73651;BME280;61944;52.538;6.108;2023-11-22T10:51:31;102914.03;;;4.82;100.00
73651;BME280;61944;52.538;6.108;2023-11-22T10:53:58;102914.81;;;4.87;100.00
73651;BME280;61944;52.538;6.108;2023-11-22T10:56:26;102926.00;;;4.77;100.00
73651;BME280;61944;52.538;6.108;2023-11-22T10:58:56;102925.25;;;4.61;100.00
73651;BME280;61944;52.538;6.108;2023-11-22T11:01:26;102915.75;;;4.73;100.00
73651;BME280;61944;52.538;6.108;2023-11-22T11:04:01;102902.66;;;4.78;100.00
73651;BME280;61944;52.538;6.108;2023-11-22T11:06:31;102879.09;;;4.81;100.00
73651;BME280;61944;52.538;6.108;2023-11-22T11:09:00;102857.13;;;4.84;100.00
73651;BME280;61944;52.538;6.108;2023-11-22T11:11:27;102850.19;;;4.87;100.00
73651;BME280;61944;52.538;6.108;2023-11-22T11:13:53;102835.78;;;4.85;100.00
73651;BME280;61944;52.538;6.108;2023-11-22T11:16:19;102827.03;;;4.97;100.00
73651;BME280;61944;52.538;6.108;2023-11-22T11:18:45;102822.66;;;4.91;100.00
73651;BME280;61944;52.538;6.108;2023-11-22T11:21:11;102814.63;;;4.89;100.00
73651;BME280;61944;52.538;6.108;2023-11-22T11:23:39;102825.44;;;4.91;100.00
73651;BME280;61944;52.538;6.108;2023-11-22T11:26:15;102825.16;;;4.92;100.00
73651;BME280;61944;52.538;6.108;2023-11-22T11:28:48;102817.94;;;4.91;100.00
73651;BME280;61944;52.538;6.108;2023-11-22T11:31:14;102811.84;;;4.89;100.00
73651;BME280;61944;52.538;6.108;2023-11-22T11:36:28;102816.88;;;4.87;100.00
73651;BME280;61944;52.538;6.108;2023-11-22T11:38:56;102814.88;;;4.93;100.00
73651;BME280;61944;52.538;6.108;2023-11-22T11:41:29;102815.75;;;4.88;100.00
73651;BME280;61944;52.538;6.108;2023-11-22T11:43:56;102810.69;;;4.95;100.00
73651;BME280;61944;52.538;6.108;2023-11-22T11:46:21;102805.34;;;5.04;100.00
73651;BME280;61944;52.538;6.108;2023-11-22T11:48:54;102792.84;;;5.01;100.00
73651;BME280;61944;52.538;6.108;2023-11-22T11:51:25;102789.41;;;5.15;100.00
73651;BME280;61944;52.538;6.108;2023-11-22T11:53:52;102783.75;;;5.25;100.00
73651;BME280;61944;52.538;6.108;2023-11-22T11:56:19;102780.53;;;5.13;100.00
73651;BME280;61944;52.538;6.108;2023-11-22T11:58:45;102790.50;;;5.14;100.00
73651;BME280;61944;52.538;6.108;2023-11-22T12:01:15;102795.41;;;5.22;100.00
73651;BME280;61944;52.538;6.108;2023-11-22T12:03:41;102786.09;;;5.13;100.00
73651;BME280;61944;52.538;6.108;2023-11-22T12:06:07;102785.13;;;5.22;100.00
73651;BME280;61944;52.538;6.108;2023-11-22T12:08:33;102788.44;;;5.24;100.00
73651;BME280;61944;52.538;6.108;2023-11-22T12:11:03;102787.50;;;5.34;100.00
73651;BME280;61944;52.538;6.108;2023-11-22T12:13:36;102781.97;;;5.34;100.00
73651;BME280;61944;52.538;6.108;2023-11-22T12:16:08;102781.34;;;5.37;100.00
73651;BME280;61944;52.538;6.108;2023-11-22T12:18:50;102783.59;;;5.35;100.00
73651;BME280;61944;52.538;6.108;2023-11-22T12:21:17;102787.63;;;5.48;100.00
73651;BME280;61944;52.538;6.108;2023-11-22T12:23:44;102789.38;;;5.63;100.00
73651;BME280;61944;52.538;6.108;2023-11-22T12:26:13;102776.50;;;5.72;100.00
73651;BME280;61944;52.538;6.108;2023-11-22T12:28:40;102782.78;;;5.59;100.00
73651;BME280;61944;52.538;6.108;2023-11-22T12:31:09;102765.50;;;5.62;100.00
73651;BME280;61944;52.538;6.108;2023-11-22T12:33:35;102754.91;;;5.64;100.00
73651;BME280;61944;52.538;6.108;2023-11-22T12:36:02;102762.06;;;5.70;100.00
73651;BME280;61944;52.538;6.108;2023-11-22T12:38:29;102759.34;;;5.65;100.00
73651;BME280;61944;52.538;6.108;2023-11-22T12:40:57;102752.75;;;5.61;100.00
73651;BME280;61944;52.538;6.108;2023-11-22T12:43:23;102743.72;;;5.69;100.00
73651;BME280;61944;52.538;6.108;2023-11-22T12:45:58;102733.22;;;5.66;100.00
73651;BME280;61944;52.538;6.108;2023-11-22T12:48:25;102734.19;;;5.75;100.00
73651;BME280;61944;52.538;6.108;2023-11-22T12:50:51;102733.09;;;5.76;100.00
73651;BME280;61944;52.538;6.108;2023-11-22T12:53:18;102733.38;;;5.75;100.00
73651;BME280;61944;52.538;6.108;2023-11-22T12:55:50;102729.84;;;5.69;100.00
73651;BME280;61944;52.538;6.108;2023-11-22T12:58:20;102719.88;;;5.68;100.00
73651;BME280;61944;52.538;6.108;2023-11-22T13:00:46;102721.50;;;5.69;100.00
73651;BME280;61944;52.538;6.108;2023-11-22T13:03:13;102720.91;;;5.72;100.00
73651;BME280;61944;52.538;6.108;2023-11-22T13:05:40;102711.75;;;5.72;100.00
73651;BME280;61944;52.538;6.108;2023-11-22T13:08:08;102702.06;;;5.69;100.00
73651;BME280;61944;52.538;6.108;2023-11-22T13:10:36;102699.81;;;5.71;100.00
73651;BME280;61944;52.538;6.108;2023-11-22T13:13:01;102691.94;;;5.78;100.00
73651;BME280;61944;52.538;6.108;2023-11-22T13:15:26;102700.78;;;5.80;100.00
73651;BME280;61944;52.538;6.108;2023-11-22T13:17:52;102691.31;;;5.81;100.00
73651;BME280;61944;52.538;6.108;2023-11-22T13:20:24;102687.44;;;5.82;100.00
73651;BME280;61944;52.538;6.108;2023-11-22T13:22:51;102689.34;;;5.82;100.00
73651;BME280;61944;52.538;6.108;2023-11-22T13:25:16;102679.16;;;5.77;100.00
73651;BME280;61944;52.538;6.108;2023-11-22T13:27:47;102676.22;;;5.87;100.00
73651;BME280;61944;52.538;6.108;2023-11-22T13:30:14;102677.75;;;5.80;100.00
73651;BME280;61944;52.538;6.108;2023-11-22T13:32:40;102686.38;;;5.78;100.00
73651;BME280;61944;52.538;6.108;2023-11-22T13:35:08;102675.78;;;5.80;100.00
73651;BME280;61944;52.538;6.108;2023-11-22T13:37:40;102680.97;;;5.87;100.00
73651;BME280;61944;52.538;6.108;2023-11-22T13:40:10;102680.19;;;5.81;100.00
73651;BME280;61944;52.538;6.108;2023-11-22T13:42:45;102667.06;;;5.87;100.00
73651;BME280;61944;52.538;6.108;2023-11-22T13:45:12;102660.22;;;5.79;100.00
73651;BME280;61944;52.538;6.108;2023-11-22T13:47:42;102659.03;;;5.85;100.00
73651;BME280;61944;52.538;6.108;2023-11-22T13:50:08;102654.06;;;5.82;100.00
73651;BME280;61944;52.538;6.108;2023-11-22T13:52:34;102659.50;;;5.74;100.00
73651;BME280;61944;52.538;6.108;2023-11-22T13:54:59;102660.34;;;5.88;100.00
73651;BME280;61944;52.538;6.108;2023-11-22T13:57:26;102660.22;;;5.79;100.00
73651;BME280;61944;52.538;6.108;2023-11-22T13:59:51;102662.94;;;5.84;100.00
73651;BME280;61944;52.538;6.108;2023-11-22T14:02:16;102668.41;;;5.89;100.00
73651;BME280;61944;52.538;6.108;2023-11-22T14:04:42;102666.25;;;5.86;100.00
73651;BME280;61944;52.538;6.108;2023-11-22T14:07:07;102662.09;;;5.84;100.00
73651;BME280;61944;52.538;6.108;2023-11-22T14:09:32;102649.56;;;5.86;100.00
73651;BME280;61944;52.538;6.108;2023-11-22T14:12:02;102646.03;;;5.81;100.00
73651;BME280;61944;52.538;6.108;2023-11-22T14:14:27;102646.25;;;5.84;100.00
73651;BME280;61944;52.538;6.108;2023-11-22T14:16:52;102641.28;;;5.81;100.00
73651;BME280;61944;52.538;6.108;2023-11-22T14:19:17;102630.28;;;5.76;100.00
73651;BME280;61944;52.538;6.108;2023-11-22T14:21:44;102634.69;;;5.77;100.00
73651;BME280;61944;52.538;6.108;2023-11-22T14:24:09;102628.69;;;5.70;100.00
73651;BME280;61944;52.538;6.108;2023-11-22T14:26:35;102629.66;;;5.79;100.00
73651;BME280;61944;52.538;6.108;2023-11-22T14:29:01;102633.63;;;5.73;100.00
73651;BME280;61944;52.538;6.108;2023-11-22T14:31:27;102634.09;;;5.80;100.00
73651;BME280;61944;52.538;6.108;2023-11-22T14:33:53;102636.34;;;5.78;100.00
73651;BME280;61944;52.538;6.108;2023-11-22T14:36:18;102634.69;;;5.77;100.00
73651;BME280;61944;52.538;6.108;2023-11-22T14:38:43;102633.06;;;5.76;100.00
73651;BME280;61944;52.538;6.108;2023-11-22T14:41:09;102614.56;;;5.85;100.00
73651;BME280;61944;52.538;6.108;2023-11-22T14:43:35;102596.63;;;5.78;100.00
73651;BME280;61944;52.538;6.108;2023-11-22T14:46:00;102610.22;;;5.79;100.00
73651;BME280;61944;52.538;6.108;2023-11-22T14:48:26;102611.78;;;5.85;100.00
73651;BME280;61944;52.538;6.108;2023-11-22T14:50:52;102610.13;;;5.84;100.00
73651;BME280;61944;52.538;6.108;2023-11-22T14:53:17;102611.78;;;5.85;100.00
73651;BME280;61944;52.538;6.108;2023-11-22T14:55:42;102594.69;;;5.78;100.00
73651;BME280;61944;52.538;6.108;2023-11-22T14:58:08;102608.56;;;5.78;100.00
73651;BME280;61944;52.538;6.108;2023-11-22T15:00:34;102607.13;;;5.81;100.00
73651;BME280;61944;52.538;6.108;2023-11-22T15:02:59;102620.28;;;5.75;100.00
73651;BME280;61944;52.538;6.108;2023-11-22T15:05:25;102607.94;;;5.81;100.00
73651;BME280;61944;52.538;6.108;2023-11-22T15:07:51;102613.44;;;5.86;100.00
73651;BME280;61944;52.538;6.108;2023-11-22T15:10:20;102601.16;;;5.74;100.00
73651;BME280;61944;52.538;6.108;2023-11-22T15:12:46;102604.22;;;5.72;100.00
73651;BME280;61944;52.538;6.108;2023-11-22T15:15:13;102614.81;;;5.70;100.00
73651;BME280;61944;52.538;6.108;2023-11-22T15:17:41;102615.09;;;5.68;100.00
73651;BME280;61944;52.538;6.108;2023-11-22T15:20:10;102607.69;;;5.64;100.00
73651;BME280;61944;52.538;6.108;2023-11-22T15:22:37;102605.03;;;5.73;100.00
73651;BME280;61944;52.538;6.108;2023-11-22T15:25:02;102615.34;;;5.72;100.00
73651;BME280;61944;52.538;6.108;2023-11-22T15:27:30;102614.88;;;5.65;100.00
73651;BME280;61944;52.538;6.108;2023-11-22T15:29:55;102596.66;;;5.59;100.00
73651;BME280;61944;52.538;6.108;2023-11-22T15:32:20;102596.19;;;5.70;100.00
73651;BME280;61944;52.538;6.108;2023-11-22T15:34:46;102584.84;;;5.67;100.00
73651;BME280;61944;52.538;6.108;2023-11-22T15:37:12;102582.28;;;5.70;100.00
73651;BME280;61944;52.538;6.108;2023-11-22T15:39:37;102574.34;;;5.64;100.00
73651;BME280;61944;52.538;6.108;2023-11-22T15:42:03;102574.97;;;5.61;100.00
73651;BME280;61944;52.538;6.108;2023-11-22T15:44:31;102579.28;;;5.67;100.00
73651;BME280;61944;52.538;6.108;2023-11-22T15:46:57;102556.06;;;5.77;100.00
73651;BME280;61944;52.538;6.108;2023-11-22T15:49:22;102545.88;;;5.72;100.00
73651;BME280;61944;52.538;6.108;2023-11-22T15:51:47;102560.28;;;5.74;100.00
73651;BME280;61944;52.538;6.108;2023-11-22T15:54:13;102553.50;;;5.80;100.00
73651;BME280;61944;52.538;6.108;2023-11-22T15:56:38;102547.44;;;5.78;100.00
73651;BME280;61944;52.538;6.108;2023-11-22T15:59:03;102537.09;;;5.65;100.00
73651;BME280;61944;52.538;6.108;2023-11-22T16:01:29;102521.47;;;5.69;100.00
73651;BME280;61944;52.538;6.108;2023-11-22T16:03:55;102519.19;;;5.71;100.00
73651;BME280;61944;52.538;6.108;2023-11-22T16:06:20;102514.84;;;5.51;100.00
73651;BME280;61944;52.538;6.108;2023-11-22T16:08:46;102507.38;;;5.65;100.00
73651;BME280;61944;52.538;6.108;2023-11-22T16:11:12;102518.56;;;5.60;100.00
73651;BME280;61944;52.538;6.108;2023-11-22T16:13:37;102520.63;;;5.55;100.00
73651;BME280;61944;52.538;6.108;2023-11-22T16:16:02;102510.91;;;5.52;100.00
73651;BME280;61944;52.538;6.108;2023-11-22T16:18:33;102504.03;;;5.49;100.00
73651;BME280;61944;52.538;6.108;2023-11-22T16:20:59;102492.50;;;5.56;100.00
73651;BME280;61944;52.538;6.108;2023-11-22T16:23:24;102487.94;;;5.65;100.00
73651;BME280;61944;52.538;6.108;2023-11-22T16:25:50;102484.09;;;5.61;100.00
73651;BME280;61944;52.538;6.108;2023-11-22T16:28:19;102493.38;;;5.70;100.00
73651;BME280;61944;52.538;6.108;2023-11-22T16:30:44;102510.34;;;5.69;100.00
73651;BME280;61944;52.538;6.108;2023-11-22T16:33:10;102517.56;;;5.70;100.00
73651;BME280;61944;52.538;6.108;2023-11-22T16:35:36;102508.19;;;5.66;100.00
73651;BME280;61944;52.538;6.108;2023-11-22T16:38:01;102513.75;;;5.66;100.00
73651;BME280;61944;52.538;6.108;2023-11-22T16:40:29;102502.94;;;5.64;100.00
73651;BME280;61944;52.538;6.108;2023-11-22T16:42:54;102488.84;;;5.61;100.00
73651;BME280;61944;52.538;6.108;2023-11-22T16:45:19;102496.97;;;5.71;100.00
73651;BME280;61944;52.538;6.108;2023-11-22T16:47:45;102498.59;;;5.58;100.00
73651;BME280;61944;52.538;6.108;2023-11-22T16:50:12;102492.03;;;5.68;100.00
73651;BME280;61944;52.538;6.108;2023-11-22T16:52:38;102504.19;;;5.72;100.00
73651;BME280;61944;52.538;6.108;2023-11-22T16:55:03;102492.63;;;5.65;100.00
73651;BME280;61944;52.538;6.108;2023-11-22T16:57:29;102478.03;;;5.59;100.00
73651;BME280;61944;52.538;6.108;2023-11-22T16:59:55;102448.41;;;5.55;100.00
73651;BME280;61944;52.538;6.108;2023-11-22T17:02:20;102464.84;;;5.65;100.00
73651;BME280;61944;52.538;6.108;2023-11-22T17:04:45;102454.38;;;5.62;100.00
73651;BME280;61944;52.538;6.108;2023-11-22T17:07:12;102454.78;;;5.69;100.00
73651;BME280;61944;52.538;6.108;2023-11-22T17:09:41;102458.69;;;5.68;100.00
73651;BME280;61944;52.538;6.108;2023-11-22T17:12:07;102471.25;;;5.65;100.00
73651;BME280;61944;52.538;6.108;2023-11-22T17:14:33;102485.25;;;5.74;100.00
73651;BME280;61944;52.538;6.108;2023-11-22T17:16:58;102469.41;;;5.75;100.00
73651;BME280;61944;52.538;6.108;2023-11-22T17:19:24;102453.56;;;5.75;100.00
73651;BME280;61944;52.538;6.108;2023-11-22T17:21:49;102449.16;;;5.74;100.00
73651;BME280;61944;52.538;6.108;2023-11-22T17:24:15;102452.97;;;5.78;100.00
73651;BME280;61944;52.538;6.108;2023-11-22T17:26:41;102448.00;;;5.75;100.00
73651;BME280;61944;52.538;6.108;2023-11-22T17:29:06;102458.06;;;5.71;100.00
73651;BME280;61944;52.538;6.108;2023-11-22T17:31:31;102456.53;;;5.65;100.00
73651;BME280;61944;52.538;6.108;2023-11-22T17:33:57;102460.25;;;5.74;100.00
73651;BME280;61944;52.538;6.108;2023-11-22T17:36:22;102454.69;;;5.74;100.00
73651;BME280;61944;52.538;6.108;2023-11-22T17:38:47;102439.59;;;5.80;100.00
73651;BME280;61944;52.538;6.108;2023-11-22T17:41:13;102434.63;;;5.77;100.00
73651;BME280;61944;52.538;6.108;2023-11-22T17:43:38;102448.84;;;5.89;100.00
73651;BME280;61944;52.538;6.108;2023-11-22T17:46:03;102444.09;;;5.76;100.00
73651;BME280;61944;52.538;6.108;2023-11-22T17:48:32;102435.84;;;5.71;100.00
73651;BME280;61944;52.538;6.108;2023-11-22T17:50:57;102433.41;;;5.83;100.00
73651;BME280;61944;52.538;6.108;2023-11-22T17:53:23;102417.25;;;5.72;100.00
73651;BME280;61944;52.538;6.108;2023-11-22T17:55:51;102419.69;;;5.73;100.00
73651;BME280;61944;52.538;6.108;2023-11-22T17:58:17;102421.88;;;5.76;100.00
73651;BME280;61944;52.538;6.108;2023-11-22T18:00:42;102426.41;;;5.86;100.00
73651;BME280;61944;52.538;6.108;2023-11-22T18:03:08;102424.34;;;5.91;100.00
73651;BME280;61944;52.538;6.108;2023-11-22T18:05:34;102428.28;;;5.90;100.00
73651;BME280;61944;52.538;6.108;2023-11-22T18:07:59;102426.22;;;5.96;100.00
73651;BME280;61944;52.538;6.108;2023-11-22T18:10:24;102422.72;;;5.90;100.00
73651;BME280;61944;52.538;6.108;2023-11-22T18:12:52;102425.28;;;6.01;100.00
73651;BME280;61944;52.538;6.108;2023-11-22T18:15:18;102424.78;;;6.13;100.00
73651;BME280;61944;52.538;6.108;2023-11-22T18:17:44;102408.75;;;5.96;100.00
73651;BME280;61944;52.538;6.108;2023-11-22T18:20:10;102409.94;;;5.76;100.00
73651;BME280;61944;52.538;6.108;2023-11-22T18:22:36;102408.19;;;5.80;100.00
73651;BME280;61944;52.538;6.108;2023-11-22T18:25:02;102394.31;;;5.80;100.00
73651;BME280;61944;52.538;6.108;2023-11-22T18:27:28;102382.88;;;5.81;100.00
73651;BME280;61944;52.538;6.108;2023-11-22T18:29:53;102382.25;;;5.84;100.00
73651;BME280;61944;52.538;6.108;2023-11-22T18:32:18;102380.69;;;5.92;100.00
73651;BME280;61944;52.538;6.108;2023-11-22T18:34:50;102387.09;;;5.93;100.00
73651;BME280;61944;52.538;6.108;2023-11-22T18:37:16;102387.72;;;5.89;100.00